createdAt,value
2019-04-10T00:01:25.670Z,37.90
2019-04-10T00:03:55.128Z,44.57
2019-04-10T00:06:25.741Z,38.60
2019-04-10T00:08:55.462Z,38.13
2019-04-10T00:11:25.158Z,42.70
2019-04-10T00:13:55.321Z,39.17
2019-04-10T00:16:24.799Z,34.30
2019-04-10T00:18:54.493Z,36.93
2019-04-10T00:21:25.092Z,37.77
2019-04-10T00:23:55.575Z,39.93
2019-04-10T00:26:25.778Z,36.33
2019-04-10T00:28:56.054Z,38.03
2019-04-10T00:31:26.342Z,38.83
2019-04-10T00:33:57.252Z,42.00
2019-04-10T00:36:27.476Z,37.13
2019-04-10T00:38:57.995Z,36.83
2019-04-10T00:41:28.402Z,44.10
2019-04-10T00:43:59.355Z,40.15
2019-04-10T00:46:29.074Z,38.37
2019-04-10T00:48:58.694Z,36.30
2019-04-10T00:51:28.562Z,36.25
2019-04-10T00:53:59.342Z,36.80
2019-04-10T00:56:28.754Z,40.63
2019-04-10T00:58:59.549Z,35.30
2019-04-10T01:01:29.861Z,36.00
2019-04-10T01:04:00.223Z,34.78
2019-04-10T01:06:30.416Z,38.73
2019-04-10T01:08:59.972Z,33.53
2019-04-10T01:11:30.747Z,40.30
2019-04-10T01:14:01.156Z,37.70
2019-04-10T01:16:31.358Z,33.20
2019-04-10T01:19:01.728Z,36.63
2019-04-10T01:21:31.170Z,35.40
2019-04-10T01:24:01.430Z,36.60
2019-04-10T01:26:31.621Z,37.03
2019-04-10T01:29:01.395Z,31.87
2019-04-10T01:31:30.993Z,37.30
2019-04-10T01:34:01.048Z,32.60
2019-04-10T01:36:31.138Z,28.87
2019-04-10T01:39:00.712Z,32.20
2019-04-10T01:41:30.083Z,33.50
2019-04-10T01:43:59.459Z,30.80
2019-04-10T01:46:28.838Z,32.50
2019-04-10T01:48:58.216Z,31.93
2019-04-10T01:51:27.595Z,29.92
2019-04-10T01:53:56.973Z,27.90
2019-04-10T01:56:31.674Z,30.43
2019-04-10T01:58:57.450Z,24.63
2019-04-10T02:01:32.488Z,30.70
2019-04-10T02:04:02.641Z,28.63
2019-04-10T02:06:32.078Z,32.87
2019-04-10T02:09:02.567Z,33.57
2019-04-10T02:11:32.268Z,32.17
2019-04-10T02:14:01.768Z,33.00
2019-04-10T02:16:31.127Z,35.77
2019-04-10T02:19:01.634Z,28.97
2019-04-10T02:21:31.816Z,28.90
2019-04-10T02:24:01.218Z,29.30
2019-04-10T02:26:31.559Z,27.93
2019-04-10T02:29:01.717Z,32.40
2019-04-10T02:31:32.001Z,31.03
2019-04-10T02:34:01.776Z,27.47
2019-04-10T02:36:31.666Z,27.90
2019-04-10T02:39:13.462Z,25.60
2019-04-10T02:41:34.471Z,25.90
2019-04-10T02:44:04.855Z,29.23
2019-04-10T02:46:34.870Z,30.13
2019-04-10T02:49:06.000Z,31.17
2019-04-10T02:51:35.895Z,29.42
2019-04-10T02:54:05.822Z,29.30
2019-04-10T02:56:36.528Z,27.60
2019-04-10T02:59:07.413Z,27.13
2019-04-10T03:01:37.950Z,27.50
2019-04-10T03:04:09.042Z,28.30
2019-04-10T03:06:39.521Z,28.80
2019-04-10T03:09:26.042Z,29.17
2019-04-10T03:11:41.975Z,27.40
2019-04-10T03:14:12.527Z,28.03
2019-04-10T03:16:42.327Z,27.27
2019-04-10T03:19:11.731Z,28.53
2019-04-10T03:21:41.089Z,26.23
2019-04-10T03:24:10.519Z,26.65
2019-04-10T03:26:39.875Z,25.77
2019-04-10T03:29:09.265Z,25.13
2019-04-10T03:31:41.259Z,26.37
2019-04-10T03:34:16.807Z,25.23
2019-04-10T03:36:47.514Z,24.00
2019-04-10T03:39:17.418Z,26.80
2019-04-10T03:41:46.821Z,25.57
2019-04-10T03:44:16.709Z,25.50
2019-04-10T03:46:46.962Z,30.20
2019-04-10T03:49:16.592Z,28.80
2019-04-10T03:51:47.025Z,26.77
2019-04-10T03:54:16.420Z,28.73
2019-04-10T03:56:45.785Z,29.00
2019-04-10T03:59:15.894Z,27.42
2019-04-10T04:01:45.324Z,25.37
2019-04-10T04:04:15.451Z,23.33
2019-04-10T04:06:45.986Z,25.13
2019-04-10T04:09:16.223Z,24.13
2019-04-10T04:11:46.151Z,24.37
2019-04-10T04:14:16.459Z,24.00
2019-04-10T04:16:46.829Z,30.07
2019-04-10T04:19:17.635Z,29.13
2019-04-10T04:21:48.079Z,29.30
2019-04-10T04:24:17.914Z,27.10
2019-04-10T04:26:48.689Z,26.00
2019-04-10T04:29:18.492Z,26.60
2019-04-10T04:31:48.524Z,25.33
2019-04-10T04:34:18.654Z,22.23
2019-04-10T04:36:49.127Z,22.40
2019-04-10T04:39:25.693Z,23.80
2019-04-10T04:41:50.113Z,23.43
2019-04-10T04:44:20.266Z,23.75
2019-04-10T04:46:50.602Z,22.45
2019-04-10T04:49:20.640Z,23.07
2019-04-10T04:51:50.568Z,26.43
2019-04-10T04:54:21.328Z,22.93
2019-04-10T04:56:50.715Z,25.13
2019-04-10T04:59:20.553Z,22.47
2019-04-10T05:01:50.057Z,25.10
2019-04-10T05:04:19.464Z,21.97
2019-04-10T05:06:49.857Z,22.58
2019-04-10T05:09:30.383Z,24.40
2019-04-10T05:11:51.046Z,22.60
2019-04-10T05:14:21.592Z,21.95
2019-04-10T05:16:52.063Z,22.70
2019-04-10T05:19:21.567Z,23.27
2019-04-10T05:21:51.928Z,25.17
2019-04-10T05:24:22.016Z,21.30
2019-04-10T05:26:51.464Z,23.47
2019-04-10T05:29:21.660Z,20.90
2019-04-10T05:31:51.534Z,23.53
2019-04-10T05:34:21.894Z,19.73
2019-04-10T05:36:51.770Z,21.25
2019-04-10T05:39:22.344Z,20.73
2019-04-10T05:41:52.106Z,23.60
2019-04-10T05:44:21.458Z,22.00
2019-04-10T05:46:50.839Z,20.10
2019-04-10T05:49:20.666Z,25.35
2019-04-10T05:51:50.179Z,26.20
2019-04-10T05:54:20.669Z,21.13
2019-04-10T05:56:50.939Z,18.87
2019-04-10T05:59:20.300Z,19.70
2019-04-10T06:01:50.566Z,24.77
2019-04-10T06:04:20.877Z,20.23
2019-04-10T06:06:50.629Z,22.63
2019-04-10T06:09:20.586Z,22.63
2019-04-10T06:11:50.075Z,20.40
2019-04-10T06:14:19.431Z,20.97
2019-04-10T06:16:49.252Z,20.60
2019-04-10T06:19:19.988Z,21.93
2019-04-10T06:21:50.396Z,19.27
2019-04-10T06:24:20.408Z,18.57
2019-04-10T06:26:50.136Z,20.80
2019-04-10T06:29:19.616Z,20.37
2019-04-10T06:31:49.370Z,19.90
2019-04-10T06:34:18.983Z,16.37
2019-04-10T06:36:49.441Z,25.10
2019-04-10T06:39:18.821Z,17.60
2019-04-10T06:41:48.758Z,15.97
2019-04-10T06:44:19.291Z,18.70
2019-04-10T06:46:49.106Z,19.70
2019-04-10T06:49:18.684Z,19.03
2019-04-10T06:51:48.124Z,17.73
2019-04-10T06:54:17.500Z,18.77
2019-04-10T06:56:48.545Z,21.37
2019-04-10T06:59:18.366Z,18.60
2019-04-10T07:01:52.600Z,17.37
2019-04-10T07:04:21.948Z,16.17
2019-04-10T07:06:58.719Z,18.10
2019-04-10T07:09:25.194Z,18.23
2019-04-10T07:11:58.512Z,18.00
2019-04-10T07:14:25.131Z,20.33
2019-04-10T07:16:54.968Z,17.90
2019-04-10T07:19:24.520Z,18.33
2019-04-10T07:21:53.894Z,16.23
2019-04-10T07:24:23.514Z,19.60
2019-04-10T07:26:53.352Z,18.60
2019-04-10T07:29:26.643Z,20.37
2019-04-10T07:31:54.980Z,18.07
2019-04-10T07:34:26.951Z,18.73
2019-04-10T07:36:56.059Z,19.60
2019-04-10T07:39:28.093Z,18.37
2019-04-10T07:41:57.732Z,17.97
2019-04-10T07:44:27.190Z,18.57
2019-04-10T07:46:59.067Z,18.77
2019-04-10T07:49:31.060Z,20.60
2019-04-10T07:51:59.046Z,17.73
2019-04-10T07:54:28.855Z,17.50
2019-04-10T07:56:58.228Z,20.30
2019-04-10T07:59:27.610Z,21.27
2019-04-10T08:01:58.008Z,21.53
2019-04-10T08:04:27.432Z,16.83
2019-04-10T08:06:56.834Z,24.20
2019-04-10T08:09:26.877Z,18.33
2019-04-10T08:11:56.747Z,24.25
2019-04-10T08:14:27.432Z,19.70
2019-04-10T08:16:57.418Z,17.87
2019-04-10T08:19:28.180Z,21.65
2019-04-10T08:21:57.989Z,21.40
2019-04-10T08:24:28.040Z,19.53
2019-04-10T08:26:57.520Z,18.47
2019-04-10T08:29:27.037Z,23.33
2019-04-10T08:31:56.894Z,20.33
2019-04-10T08:34:26.258Z,18.90
2019-04-10T08:36:56.820Z,17.07
2019-04-10T08:39:33.920Z,20.37
2019-04-10T08:41:57.909Z,20.30
2019-04-10T08:44:27.795Z,20.87
2019-04-10T08:46:58.161Z,20.52
2019-04-10T08:49:28.306Z,17.93
2019-04-10T08:51:57.929Z,25.43
2019-04-10T08:54:28.131Z,23.93
2019-04-10T08:56:57.606Z,19.80
2019-04-10T08:59:27.799Z,19.57
2019-04-10T09:01:57.751Z,17.50
2019-04-10T09:04:28.748Z,23.07
2019-04-10T09:07:00.957Z,21.27
2019-04-10T09:09:29.935Z,17.07
2019-04-10T09:11:59.826Z,19.93
2019-04-10T09:14:29.624Z,19.50
2019-04-10T09:16:59.166Z,22.62
2019-04-10T09:19:29.990Z,19.33
2019-04-10T09:21:59.628Z,21.93
2019-04-10T09:24:29.993Z,18.48
2019-04-10T09:27:00.527Z,20.85
2019-04-10T09:29:30.004Z,22.03
2019-04-10T09:31:59.398Z,21.45
2019-04-10T09:34:29.030Z,19.07
2019-04-10T09:36:59.816Z,19.57
2019-04-10T09:39:29.593Z,18.20
2019-04-10T09:41:58.991Z,18.43
2019-04-10T09:44:28.337Z,19.07
2019-04-10T09:46:57.977Z,19.80
2019-04-10T09:49:37.666Z,23.33
2019-04-10T09:51:59.175Z,26.13
2019-04-10T09:54:28.565Z,21.17
2019-04-10T09:56:59.056Z,17.83
2019-04-10T09:59:35.917Z,28.65
2019-04-10T10:02:00.531Z,20.77
2019-04-10T10:04:29.871Z,19.27
2019-04-10T10:06:59.832Z,18.37
2019-04-10T10:09:30.602Z,18.77
2019-04-10T10:12:01.082Z,20.93
2019-04-10T10:14:33.256Z,17.82
2019-04-10T10:17:01.955Z,18.30
2019-04-10T10:19:32.196Z,18.47
2019-04-10T10:22:03.605Z,19.20
2019-04-10T10:24:33.002Z,19.57
2019-04-10T10:27:02.359Z,20.00
2019-04-10T10:29:31.729Z,20.90
2019-04-10T10:32:02.479Z,18.92
2019-04-10T10:34:32.436Z,18.17
2019-04-10T10:37:03.623Z,27.10
2019-04-10T10:39:34.926Z,22.60
2019-04-10T10:42:05.494Z,23.10
2019-04-10T10:44:36.189Z,21.30
2019-04-10T10:47:06.245Z,21.93
2019-04-10T10:49:36.624Z,19.03
2019-04-10T10:52:07.072Z,19.65
2019-04-10T10:54:36.981Z,20.80
2019-04-10T10:57:06.969Z,21.60
2019-04-10T10:59:37.742Z,20.13
2019-04-10T11:02:08.554Z,18.92
2019-04-10T11:04:38.021Z,21.07
2019-04-10T11:07:08.547Z,21.68
2019-04-10T11:09:40.110Z,19.97
2019-04-10T11:12:12.177Z,19.27
2019-04-10T11:14:41.697Z,20.80
2019-04-10T11:17:11.909Z,20.03
2019-04-10T11:19:41.707Z,19.47
2019-04-10T11:22:12.597Z,19.87
2019-04-10T11:24:43.422Z,27.63
2019-04-10T11:27:14.297Z,20.87
2019-04-10T11:29:45.403Z,20.80
2019-04-10T11:32:15.500Z,16.33
2019-04-10T11:34:44.930Z,18.17
2019-04-10T11:37:24.126Z,24.20
2019-04-10T11:39:47.633Z,25.03
2019-04-10T11:42:18.318Z,21.97
2019-04-10T11:44:49.331Z,17.13
2019-04-10T11:47:20.023Z,16.57
2019-04-10T11:49:49.985Z,20.23
2019-04-10T11:52:30.744Z,18.40
2019-04-10T11:54:50.469Z,18.53
2019-04-10T11:57:20.560Z,18.63
2019-04-10T11:59:50.952Z,19.70
2019-04-10T12:02:24.838Z,17.82
2019-04-10T12:04:56.989Z,19.17
2019-04-10T12:07:55.105Z,20.93
2019-04-10T12:12:25.908Z,20.93
2019-04-10T12:14:56.217Z,17.92
2019-04-10T12:17:25.690Z,18.70
2019-04-10T12:19:55.034Z,17.17
2019-04-10T12:22:24.409Z,17.43
2019-04-10T12:24:54.352Z,22.37
2019-04-10T12:27:23.744Z,24.13
2019-04-10T12:29:53.205Z,20.10
2019-04-10T12:32:23.036Z,18.02
2019-04-10T12:34:52.812Z,18.43
2019-04-10T12:37:23.565Z,21.67
2019-04-10T12:39:53.052Z,20.30
2019-04-10T12:42:22.418Z,17.97
2019-04-10T12:44:51.799Z,17.45
2019-04-10T12:47:21.767Z,19.87
2019-04-10T12:49:51.914Z,17.70
2019-04-10T12:52:22.716Z,17.97
2019-04-10T12:54:53.190Z,18.37
2019-04-10T12:57:23.115Z,17.60
2019-04-10T12:59:59.395Z,20.73
2019-04-10T13:02:23.763Z,19.17
2019-04-10T13:04:54.618Z,19.57
2019-04-10T13:07:23.973Z,23.63
2019-04-10T13:09:53.939Z,19.33
2019-04-10T13:12:23.464Z,18.93
2019-04-10T13:14:52.865Z,22.97
2019-04-10T13:17:22.683Z,19.15
2019-04-10T13:19:52.086Z,19.52
2019-04-10T13:22:22.295Z,19.12
2019-04-10T13:24:52.098Z,19.43
2019-04-10T13:27:21.514Z,19.03
2019-04-10T13:29:50.887Z,17.50
2019-04-10T13:32:20.856Z,19.65
2019-04-10T13:34:51.274Z,16.10
2019-04-10T13:37:20.693Z,14.87
2019-04-10T13:39:50.968Z,18.67
2019-04-10T13:42:21.038Z,17.37
2019-04-10T13:44:50.844Z,21.50
2019-04-10T13:47:21.704Z,22.73
2019-04-10T13:49:51.233Z,16.07
2019-04-10T13:52:21.391Z,18.77
2019-04-10T13:54:51.056Z,18.13
2019-04-10T13:57:20.520Z,23.30
2019-04-10T13:59:50.102Z,23.80
2019-04-10T14:02:21.511Z,18.90
2019-04-10T14:04:51.358Z,21.70
2019-04-10T14:07:22.015Z,18.97
2019-04-10T14:09:52.482Z,17.90
2019-04-10T14:12:22.940Z,19.63
2019-04-10T14:14:53.060Z,21.23
2019-04-10T14:17:23.679Z,20.75
2019-04-10T14:19:54.133Z,17.70
2019-04-10T14:22:23.896Z,18.23
2019-04-10T14:24:53.759Z,18.13
2019-04-10T14:27:24.781Z,22.80
2019-04-10T14:29:54.599Z,22.23
2019-04-10T14:32:26.016Z,20.73
2019-04-10T14:34:55.443Z,17.70
2019-04-10T14:37:25.488Z,20.25
2019-04-10T14:39:55.766Z,20.27
2019-04-10T14:42:26.549Z,20.87
2019-04-10T14:44:57.165Z,19.53
2019-04-10T14:47:27.702Z,22.13
2019-04-10T14:49:58.032Z,15.58
2019-04-10T14:52:27.608Z,20.20
2019-04-10T14:54:57.010Z,24.07
2019-04-10T14:57:26.647Z,24.90
2019-04-10T14:59:56.182Z,19.43
2019-04-10T15:02:26.371Z,14.80
2019-04-10T15:04:55.840Z,20.52
2019-04-10T15:07:25.216Z,20.47
2019-04-10T15:09:54.599Z,15.90
2019-04-10T15:12:24.696Z,18.87
2019-04-10T15:14:54.419Z,18.07
2019-04-10T15:17:25.155Z,19.33
2019-04-10T15:19:54.638Z,19.00
2019-04-10T15:22:25.418Z,20.73
2019-04-10T15:24:54.926Z,16.90
2019-04-10T15:27:25.018Z,23.90
2019-04-10T15:29:54.724Z,19.77
2019-04-10T15:32:25.269Z,18.77
2019-04-10T15:34:55.797Z,22.93
2019-04-10T15:37:27.150Z,17.90
2019-04-10T15:39:56.526Z,21.70
2019-04-10T15:42:25.935Z,19.57
2019-04-10T15:44:55.292Z,19.80
2019-04-10T15:47:24.942Z,18.43
2019-04-10T15:49:54.670Z,18.77
2019-04-10T15:52:24.039Z,18.48
2019-04-10T15:54:55.336Z,20.40
2019-04-10T15:57:25.340Z,17.90
2019-04-10T15:59:54.733Z,20.37
2019-04-10T16:02:24.100Z,21.33
2019-04-10T16:04:53.481Z,23.13
2019-04-10T16:07:23.125Z,21.10
2019-04-10T16:09:56.171Z,21.67
2019-04-10T16:12:25.333Z,17.62
2019-04-10T16:14:55.060Z,22.67
2019-04-10T16:17:35.009Z,18.47
2019-04-10T16:20:27.357Z,18.80
2019-04-10T16:23:00.896Z,20.65
2019-04-10T16:25:30.279Z,19.70
2019-04-10T16:28:02.025Z,18.40
2019-04-10T16:30:32.992Z,18.07
2019-04-10T16:33:02.891Z,18.47
2019-04-10T16:35:35.237Z,20.00
2019-04-10T16:38:05.669Z,21.00
2019-04-10T16:40:36.586Z,16.67
2019-04-10T16:43:07.858Z,22.40
2019-04-10T16:45:38.540Z,17.27
2019-04-10T16:48:08.655Z,20.33
2019-04-10T16:50:38.435Z,19.17
2019-04-10T16:53:08.015Z,18.00
2019-04-10T16:55:37.382Z,17.70
2019-04-10T16:58:07.602Z,18.50
2019-04-10T17:00:37.701Z,15.85
2019-04-10T17:03:07.626Z,16.07
2019-04-10T17:05:37.657Z,20.87
2019-04-10T17:08:07.770Z,16.03
2019-04-10T17:10:38.606Z,15.73
2019-04-10T17:13:08.925Z,19.53
2019-04-10T17:15:39.866Z,16.50
2019-04-10T17:18:09.347Z,16.23
2019-04-10T17:20:39.040Z,16.00
2019-04-10T17:23:08.483Z,15.93
2019-04-10T17:25:38.158Z,11.20
2019-04-10T17:28:08.211Z,17.20
2019-04-10T17:30:38.095Z,13.98
2019-04-10T17:33:08.842Z,13.70
2019-04-10T17:35:38.323Z,12.53
2019-04-10T17:38:07.709Z,16.77
2019-04-10T17:40:45.816Z,35.00
2019-04-10T17:43:08.571Z,15.70
2019-04-10T17:45:38.714Z,13.85
2019-04-10T17:48:09.387Z,30.97
2019-04-10T17:50:39.492Z,194.83
2019-04-10T17:53:09.279Z,115.30
2019-04-10T17:55:39.874Z,39.93
2019-04-10T17:58:09.645Z,28.30
2019-04-10T18:00:43.697Z,25.90
2019-04-10T18:03:17.603Z,17.13
2019-04-10T18:05:44.668Z,12.67
2019-04-10T18:08:14.649Z,78.23
2019-04-10T18:10:49.536Z,67.40
2019-04-10T18:13:15.587Z,32.43
2019-04-10T18:15:46.220Z,13.20
2019-04-10T18:18:15.905Z,11.20
2019-04-10T18:20:46.320Z,13.07
2019-04-10T18:23:17.538Z,46.05
2019-04-10T18:25:46.927Z,14.70
2019-04-10T18:28:17.191Z,28.30
2019-04-10T18:30:46.685Z,14.07
2019-04-10T18:33:16.126Z,12.13
2019-04-10T18:35:45.511Z,14.27
2019-04-10T18:38:15.726Z,13.93
2019-04-10T18:40:53.085Z,16.07
2019-04-10T18:43:16.356Z,12.17
2019-04-10T18:45:58.360Z,12.97
2019-04-10T18:48:16.877Z,13.10
2019-04-10T18:50:47.273Z,15.30
2019-04-10T18:53:17.146Z,12.30
2019-04-10T18:55:46.834Z,15.57
2019-04-10T18:58:17.841Z,9.87
2019-04-10T19:00:58.823Z,12.33
2019-04-10T19:03:54.680Z,14.17
2019-04-10T19:06:25.114Z,15.58
2019-04-10T19:09:07.716Z,11.70
2019-04-10T19:11:29.060Z,10.93
2019-04-10T19:13:57.335Z,12.53
2019-04-10T19:16:27.945Z,12.87
2019-04-10T19:18:57.373Z,11.60
2019-04-10T19:21:27.236Z,9.77
2019-04-10T19:23:57.358Z,11.20
2019-04-10T19:26:27.415Z,11.90
2019-04-10T19:28:57.128Z,10.40
2019-04-10T19:31:27.932Z,10.82
2019-04-10T19:33:57.597Z,9.80
2019-04-10T19:36:27.942Z,12.50
2019-04-10T19:38:57.895Z,11.47
2019-04-10T19:41:32.851Z,10.97
2019-04-10T19:43:58.931Z,11.83
2019-04-10T19:46:29.285Z,10.77
2019-04-10T19:48:59.675Z,14.40
2019-04-10T19:51:30.211Z,13.75
2019-04-10T19:54:02.651Z,14.93
2019-04-10T19:56:30.978Z,10.37
2019-04-10T19:59:00.754Z,13.37
2019-04-10T20:01:31.433Z,11.07
2019-04-10T20:04:02.067Z,15.53
2019-04-10T20:06:32.218Z,15.67
2019-04-10T20:09:01.649Z,12.87
2019-04-10T20:11:37.568Z,17.87
2019-04-10T20:14:02.131Z,16.33
2019-04-10T20:16:31.501Z,11.63
2019-04-10T20:19:01.348Z,14.05
2019-04-10T20:21:30.822Z,18.40
2019-04-10T20:24:00.653Z,13.80
2019-04-10T20:26:30.072Z,14.77
2019-04-10T20:28:59.441Z,13.40
2019-04-10T20:31:31.139Z,13.67
2019-04-10T20:34:00.627Z,13.47
2019-04-10T20:36:31.059Z,14.93
2019-04-10T20:39:00.996Z,14.23
2019-04-10T20:41:30.848Z,15.03
2019-04-10T20:44:00.234Z,17.97
2019-04-10T20:46:30.513Z,12.37
2019-04-10T20:49:00.605Z,12.53
2019-04-10T20:51:30.509Z,15.40
2019-04-10T20:54:00.213Z,11.73
2019-04-10T20:56:30.551Z,10.77
2019-04-10T20:59:00.107Z,11.33
2019-04-10T21:01:29.602Z,12.47
2019-04-10T21:03:59.255Z,14.27
2019-04-10T21:06:29.626Z,12.50
2019-04-10T21:08:59.154Z,14.53
2019-04-10T21:11:29.226Z,11.50
2019-04-10T21:13:58.979Z,16.13
2019-04-10T21:16:28.429Z,12.30
2019-04-10T21:18:58.182Z,13.27
2019-04-10T21:21:27.554Z,11.60
2019-04-10T21:23:56.932Z,10.93
2019-04-10T21:26:26.310Z,11.80
2019-04-10T21:28:55.833Z,15.27
2019-04-10T21:31:43.442Z,14.87
2019-04-10T21:34:20.021Z,17.87
2019-04-10T21:36:51.222Z,12.53
2019-04-10T21:39:21.220Z,10.73
2019-04-10T21:41:50.872Z,11.03
2019-04-10T21:44:20.429Z,10.70
2019-04-10T21:46:49.835Z,10.23
2019-04-10T21:49:19.842Z,18.60
2019-04-10T21:51:50.017Z,12.60
2019-04-10T21:54:20.447Z,9.07
2019-04-10T21:56:51.407Z,12.80
2019-04-10T21:59:20.832Z,13.60
2019-04-10T22:01:51.444Z,12.53
2019-04-10T22:04:21.041Z,11.40
2019-04-10T22:06:52.094Z,10.27
2019-04-10T22:09:31.799Z,13.43
2019-04-10T22:12:03.728Z,8.85
2019-04-10T22:14:33.551Z,12.07
2019-04-10T22:17:03.748Z,11.60
2019-04-10T22:19:35.326Z,9.77
2019-04-10T22:22:04.299Z,13.20
2019-04-10T22:24:34.509Z,10.37
2019-04-10T22:27:05.105Z,14.73
2019-04-10T22:29:34.793Z,8.87
2019-04-10T22:32:04.337Z,11.50
2019-04-10T22:34:34.245Z,10.40
2019-04-10T22:37:04.272Z,9.97
2019-04-10T22:39:33.636Z,13.33
2019-04-10T22:42:03.360Z,10.73
2019-04-10T22:44:39.187Z,9.30
2019-04-10T22:47:05.087Z,10.20
2019-04-10T22:49:34.961Z,10.72
2019-04-10T22:52:04.736Z,11.13
2019-04-10T22:54:34.608Z,9.97
2019-04-10T22:57:04.739Z,11.03
2019-04-10T22:59:34.862Z,12.47
2019-04-10T23:02:08.830Z,15.67
2019-04-10T23:04:35.364Z,11.70
2019-04-10T23:07:05.919Z,14.93
2019-04-10T23:09:36.074Z,11.20
2019-04-10T23:12:05.987Z,10.57
2019-04-10T23:14:36.521Z,10.57
2019-04-10T23:17:05.899Z,9.70
2019-04-10T23:19:36.322Z,9.67
2019-04-10T23:22:07.643Z,10.13
2019-04-10T23:24:37.962Z,8.27
2019-04-10T23:27:07.386Z,10.63
2019-04-10T23:29:36.736Z,13.23
2019-04-10T23:32:06.108Z,11.23
2019-04-10T23:34:35.473Z,9.60
2019-04-10T23:37:05.082Z,8.93
2019-04-10T23:39:34.477Z,8.97
2019-04-10T23:42:04.883Z,11.60
2019-04-10T23:44:35.965Z,8.28
2019-04-10T23:47:05.420Z,9.53
2019-04-10T23:49:35.360Z,9.33
2019-04-10T23:52:04.967Z,11.30
2019-04-10T23:54:35.261Z,12.47
2019-04-10T23:57:05.192Z,8.80
2019-04-10T23:59:35.020Z,10.20
